createdAt,value
2022-08-17T00:01:27.243Z,100873.09
2022-08-17T00:03:54.599Z,100876.44
2022-08-17T00:06:24.894Z,100875.16
2022-08-17T00:09:02.098Z,100871.03
2022-08-17T00:11:35.979Z,100873.50
2022-08-17T00:14:06.561Z,100871.41
2022-08-17T00:16:50.518Z,100876.19
2022-08-17T00:19:25.610Z,100878.53
2022-08-17T00:22:29.540Z,100878.28
2022-08-17T00:24:42.450Z,100878.28
2022-08-17T00:27:08.881Z,100874.72
2022-08-17T00:29:35.290Z,100868.28
2022-08-17T00:33:14.245Z,100878.28
2022-08-17T00:34:49.979Z,100870.56
2022-08-17T00:37:16.722Z,100876.38
2022-08-17T00:39:43.213Z,100870.53
2022-08-17T00:42:15.339Z,100872.59
2022-08-17T00:44:41.761Z,100879.50
2022-08-17T00:47:08.287Z,100880.94
2022-08-17T00:49:34.703Z,100876.56
2022-08-17T00:52:11.783Z,100874.22
2022-08-17T00:54:42.480Z,100854.78
2022-08-17T00:57:31.133Z,100878.41
2022-08-17T01:00:04.988Z,100887.34
2022-08-17T01:02:43.017Z,100875.63
2022-08-17T01:05:25.429Z,100869.56
2022-08-17T01:07:52.964Z,100869.75
2022-08-17T01:10:58.384Z,100883.34
2022-08-17T01:13:16.127Z,100886.66
2022-08-17T01:16:03.258Z,100881.25
2022-08-17T01:18:29.774Z,100889.13
2022-08-17T01:20:58.943Z,100894.13
2022-08-17T01:23:28.818Z,100888.91
2022-08-17T01:25:58.117Z,100881.38
2022-08-17T01:28:52.490Z,100881.59
2022-08-17T01:31:14.869Z,100883.72
2022-08-17T01:33:41.334Z,100882.63
2022-08-17T01:36:09.218Z,100881.78
2022-08-17T01:38:37.231Z,100893.63
2022-08-17T01:41:10.666Z,100872.09
2022-08-17T01:43:53.927Z,100892.94
2022-08-17T01:46:26.962Z,100898.16
2022-08-17T01:48:54.555Z,100897.53
2022-08-17T01:51:21.620Z,100895.00
2022-08-17T01:53:51.901Z,100896.66
2022-08-17T01:56:21.268Z,100897.72
2022-08-17T01:58:48.695Z,100894.16
2022-08-17T02:01:17.146Z,100891.84
2022-08-17T02:03:59.102Z,100882.63
2022-08-17T02:06:43.982Z,100887.84
2022-08-17T02:09:16.618Z,100882.84
2022-08-17T02:11:44.363Z,100887.66
2022-08-17T02:14:11.983Z,100898.84
2022-08-17T02:16:40.576Z,100905.47
2022-08-17T02:19:11.275Z,100910.22
2022-08-17T02:21:40.382Z,100908.94
2022-08-17T02:24:10.912Z,100887.22
2022-08-17T02:26:37.846Z,100903.72
2022-08-17T02:29:04.530Z,100899.59
2022-08-17T02:31:31.113Z,100905.00
2022-08-17T02:34:03.695Z,100896.22
2022-08-17T02:36:34.883Z,100902.47
2022-08-17T02:39:06.807Z,100896.63
2022-08-17T02:41:33.751Z,100904.53
2022-08-17T02:44:00.353Z,100876.56
2022-08-17T02:46:26.914Z,100879.25
2022-08-17T02:48:53.357Z,100902.22
2022-08-17T02:51:20.031Z,100898.22
2022-08-17T02:53:46.830Z,100890.94
2022-08-17T02:56:13.664Z,100893.22
2022-08-17T02:58:40.269Z,100891.16
2022-08-17T03:01:09.684Z,100895.09
2022-08-17T03:03:37.971Z,100887.00
2022-08-17T03:06:05.854Z,100895.31
2022-08-17T03:08:32.298Z,100900.53
2022-08-17T03:10:59.016Z,100881.44
2022-08-17T03:13:25.475Z,100888.41
2022-08-17T03:15:51.886Z,100902.56
2022-08-17T03:18:25.264Z,100892.78
2022-08-17T03:21:01.597Z,100898.19
2022-08-17T03:23:29.620Z,100890.47
2022-08-17T03:25:57.275Z,100891.25
2022-08-17T03:28:24.672Z,100898.97
2022-08-17T03:30:52.372Z,100895.63
2022-08-17T03:33:19.962Z,100898.53
2022-08-17T03:35:46.550Z,100901.41
2022-08-17T03:38:15.900Z,100898.28
2022-08-17T03:40:56.674Z,100900.16
2022-08-17T03:43:25.223Z,100895.97
2022-08-17T03:46:28.810Z,100894.41
2022-08-17T03:49:15.436Z,100903.00
2022-08-17T03:52:00.383Z,100886.47
2022-08-17T03:54:45.630Z,100900.06
2022-08-17T03:57:12.445Z,100901.06
2022-08-17T03:59:39.440Z,100896.88
2022-08-17T04:02:16.198Z,100885.34
2022-08-17T04:04:42.664Z,100892.91
2022-08-17T04:07:09.739Z,100905.00
2022-08-17T04:09:36.655Z,100890.00
2022-08-17T04:12:04.793Z,100899.59
2022-08-17T04:14:39.201Z,100909.56
2022-08-17T04:17:20.023Z,100900.63
2022-08-17T04:19:46.634Z,100907.50
2022-08-17T04:22:30.204Z,100907.50
2022-08-17T04:24:58.772Z,100905.00
2022-08-17T04:27:25.428Z,100907.50
2022-08-17T04:29:55.113Z,100916.06
2022-08-17T04:33:04.290Z,100913.34
2022-08-17T04:35:09.795Z,100915.66
2022-08-17T04:37:36.190Z,100917.16
2022-08-17T04:40:21.629Z,100921.34
2022-08-17T04:43:01.332Z,100915.16
2022-08-17T04:45:32.063Z,100925.25
2022-08-17T04:47:59.808Z,100920.56
2022-08-17T04:50:26.467Z,100926.03
2022-08-17T04:52:52.856Z,100928.34
2022-08-17T04:55:19.296Z,100933.38
2022-08-17T04:57:45.785Z,100926.09
2022-08-17T05:00:12.747Z,100931.34
2022-08-17T05:02:50.611Z,100927.03
2022-08-17T05:05:21.833Z,100903.84
2022-08-17T05:07:50.727Z,100923.69
2022-08-17T05:10:17.405Z,100926.66
2022-08-17T05:12:43.817Z,100933.44
2022-08-17T05:15:17.621Z,100928.06
2022-08-17T05:17:46.817Z,100931.44
2022-08-17T05:20:13.239Z,100926.06
2022-08-17T05:22:55.641Z,100931.75
2022-08-17T05:25:25.783Z,100921.13
2022-08-17T05:27:54.789Z,100938.06
2022-08-17T05:30:21.829Z,100924.38
2022-08-17T05:32:54.252Z,100935.47
2022-08-17T05:35:21.710Z,100934.25
2022-08-17T05:37:48.244Z,100932.63
2022-08-17T05:40:15.135Z,100942.47
2022-08-17T05:42:42.078Z,100933.97
2022-08-17T05:45:09.936Z,100931.06
2022-08-17T05:47:38.888Z,100943.00
2022-08-17T05:50:10.311Z,100948.44
2022-08-17T05:53:18.891Z,100943.84
2022-08-17T05:56:10.914Z,100945.75
2022-08-17T05:59:18.861Z,100958.47
2022-08-17T06:01:59.655Z,100950.75
2022-08-17T06:05:10.866Z,100944.88
2022-08-17T06:08:08.897Z,100967.19
2022-08-17T06:11:13.072Z,100962.78
2022-08-17T06:13:45.150Z,100966.72
2022-08-17T06:16:31.118Z,100963.94
2022-08-17T06:19:10.092Z,100967.00
2022-08-17T06:21:43.040Z,100960.44
2022-08-17T06:24:35.445Z,100958.06
2022-08-17T06:27:27.519Z,100960.94
2022-08-17T06:30:02.097Z,100966.91
2022-08-17T06:32:29.238Z,100948.91
2022-08-17T06:34:57.403Z,100965.47
2022-08-17T06:37:37.324Z,100960.31
2022-08-17T06:40:15.968Z,100965.25
2022-08-17T06:43:06.637Z,100958.41
2022-08-17T06:45:49.212Z,100960.41
2022-08-17T06:48:29.077Z,100963.00
2022-08-17T06:51:02.493Z,100971.25
2022-08-17T06:53:37.008Z,100973.81
2022-08-17T06:56:19.718Z,100941.31
2022-08-17T06:58:46.797Z,100967.22
2022-08-17T07:01:25.100Z,100972.25
2022-08-17T07:04:11.563Z,100965.59
2022-08-17T07:06:53.111Z,100951.81
2022-08-17T07:09:28.708Z,100974.84
2022-08-17T07:12:03.210Z,100970.22
2022-08-17T07:15:05.332Z,100969.09
2022-08-17T07:17:46.636Z,100959.22
2022-08-17T07:20:17.878Z,100966.81
2022-08-17T07:23:08.843Z,100968.16
2022-08-17T07:25:35.314Z,100973.03
2022-08-17T07:28:07.024Z,100979.31
2022-08-17T07:30:45.849Z,100978.94
2022-08-17T07:33:20.087Z,100968.22
2022-08-17T07:35:48.253Z,100979.28
2022-08-17T07:38:28.229Z,100979.09
2022-08-17T07:41:04.824Z,100978.81
2022-08-17T07:43:40.643Z,100973.50
2022-08-17T07:46:38.149Z,100977.38
2022-08-17T07:49:07.545Z,100974.31
2022-08-17T07:51:37.830Z,100972.06
2022-08-17T07:54:24.713Z,100979.56
2022-08-17T07:57:10.362Z,100980.31
2022-08-17T07:59:41.266Z,100977.31
2022-08-17T08:02:34.342Z,100986.06
2022-08-17T08:05:12.883Z,100988.84
2022-08-17T08:07:48.294Z,100989.13
2022-08-17T08:10:25.162Z,100983.81
2022-08-17T08:13:06.474Z,100963.81
2022-08-17T08:15:40.700Z,100983.84
2022-08-17T08:18:54.369Z,100982.69
2022-08-17T08:21:52.093Z,100989.97
2022-08-17T08:24:36.630Z,100998.84
2022-08-17T08:27:18.863Z,100990.19
2022-08-17T08:30:06.146Z,100994.66
2022-08-17T08:32:39.590Z,101008.28
2022-08-17T08:35:30.828Z,100997.31
2022-08-17T08:38:28.535Z,101009.06
2022-08-17T08:41:25.442Z,101009.41
2022-08-17T08:44:22.048Z,101011.09
2022-08-17T08:47:26.483Z,101003.16
2022-08-17T08:50:37.232Z,101015.59
2022-08-17T08:53:23.525Z,101009.53
2022-08-17T08:56:16.396Z,101011.81
2022-08-17T08:59:15.945Z,101009.66
2022-08-17T09:02:00.843Z,101014.13
2022-08-17T09:05:10.644Z,101010.78
2022-08-17T09:08:11.036Z,101013.56
2022-08-17T09:10:43.353Z,101012.19
2022-08-17T09:13:37.005Z,101016.66
2022-08-17T09:16:15.255Z,101012.00
2022-08-17T09:19:03.352Z,101010.06
2022-08-17T09:22:11.997Z,101011.72
2022-08-17T09:24:47.278Z,101012.28
2022-08-17T09:27:18.424Z,101013.88
2022-08-17T09:29:59.708Z,101011.31
2022-08-17T09:32:45.780Z,101012.53
2022-08-17T09:35:22.857Z,101015.16
2022-08-17T09:38:10.677Z,101010.00
2022-08-17T09:40:51.458Z,101003.94
2022-08-17T09:43:37.402Z,101007.59
2022-08-17T09:46:21.812Z,101008.81
2022-08-17T09:49:14.913Z,101003.34
2022-08-17T09:51:49.564Z,100997.47
2022-08-17T09:54:41.758Z,100994.28
2022-08-17T09:57:34.756Z,100969.88
2022-08-17T10:00:27.172Z,100998.13
2022-08-17T10:03:12.149Z,101007.09
2022-08-17T10:05:51.172Z,100999.06
2022-08-17T10:09:08.230Z,101008.28
2022-08-17T10:12:29.783Z,101007.56
2022-08-17T10:14:59.951Z,100999.72
2022-08-17T10:17:45.572Z,101000.06
2022-08-17T10:20:17.949Z,100995.88
2022-08-17T10:23:12.935Z,101000.28
2022-08-17T10:26:08.998Z,100996.69
2022-08-17T10:28:49.925Z,101003.28
2022-08-17T10:31:35.460Z,100996.56
2022-08-17T10:34:40.360Z,101001.00
2022-08-17T10:37:19.674Z,100993.22
2022-08-17T10:39:57.303Z,100997.41
2022-08-17T10:42:42.626Z,100987.59
2022-08-17T10:45:29.433Z,100984.50
2022-08-17T10:48:07.499Z,100991.06
2022-08-17T10:50:49.310Z,100988.50
2022-08-17T10:53:34.870Z,100983.47
2022-08-17T10:56:14.085Z,100990.00
2022-08-17T10:58:58.914Z,100981.09
2022-08-17T11:01:34.486Z,100976.00
2022-08-17T11:04:17.584Z,100983.72
2022-08-17T11:06:47.336Z,100979.16
2022-08-17T11:09:32.494Z,100976.41
2022-08-17T11:12:24.127Z,100972.41
2022-08-17T11:15:05.063Z,100974.34
2022-08-17T11:17:50.224Z,100976.00
2022-08-17T11:20:42.979Z,100972.25
2022-08-17T11:23:39.927Z,100969.94
2022-08-17T11:26:25.887Z,100964.91
2022-08-17T11:28:59.479Z,100962.22
2022-08-17T11:31:38.891Z,100963.56
2022-08-17T11:34:27.456Z,100924.41
2022-08-17T11:37:20.663Z,100960.72
2022-08-17T11:40:21.364Z,100963.03
2022-08-17T11:42:59.935Z,100965.19
2022-08-17T11:45:40.112Z,100963.88
2022-08-17T11:48:34.476Z,100964.66
2022-08-17T11:51:33.868Z,100964.59
2022-08-17T11:54:31.299Z,100952.47
2022-08-17T11:56:52.865Z,100960.16
2022-08-17T11:59:39.932Z,100958.66
2022-08-17T12:02:31.732Z,100964.50
2022-08-17T12:05:04.784Z,100968.31
2022-08-17T12:07:52.796Z,100956.72
2022-08-17T12:10:23.655Z,100945.59
2022-08-17T12:12:53.191Z,100953.84
2022-08-17T12:15:31.246Z,100957.75
2022-08-17T12:17:58.761Z,100951.22
2022-08-17T12:20:42.077Z,100950.53
2022-08-17T12:23:44.202Z,100954.88
2022-08-17T12:26:25.025Z,100953.56
2022-08-17T12:28:58.750Z,100954.09
2022-08-17T12:31:45.415Z,100948.56
2022-08-17T12:34:15.929Z,100951.44
2022-08-17T12:36:42.812Z,100949.09
2022-08-17T12:39:12.979Z,100946.44
2022-08-17T12:41:47.839Z,100948.03
2022-08-17T12:44:21.122Z,100945.81
2022-08-17T12:47:00.499Z,100943.47
2022-08-17T12:49:29.497Z,100951.66
2022-08-17T12:52:25.588Z,100944.69
2022-08-17T12:55:21.254Z,100949.03
2022-08-17T12:57:54.183Z,100952.91
2022-08-17T13:00:38.076Z,100948.53
2022-08-17T13:03:09.474Z,100948.75
2022-08-17T13:05:42.878Z,100939.78
2022-08-17T13:08:20.063Z,100927.22
2022-08-17T13:11:06.148Z,100941.53
2022-08-17T13:13:37.071Z,100915.59
2022-08-17T13:16:09.481Z,100938.03
2022-08-17T13:18:43.654Z,100930.06
2022-08-17T13:21:30.310Z,100929.25
2022-08-17T13:24:25.934Z,100920.78
2022-08-17T13:26:59.201Z,100920.63
2022-08-17T13:29:44.148Z,100900.34
2022-08-17T13:32:14.112Z,100903.94
2022-08-17T13:34:56.149Z,100892.50
2022-08-17T13:37:35.117Z,100896.63
2022-08-17T13:40:10.834Z,100913.47
2022-08-17T13:42:53.164Z,100912.91
2022-08-17T13:45:35.024Z,100907.97
2022-08-17T13:48:08.531Z,100908.78
2022-08-17T13:50:55.483Z,100910.44
2022-08-17T13:53:37.961Z,100915.50
2022-08-17T13:56:31.674Z,100914.75
2022-08-17T13:59:04.729Z,100913.16
2022-08-17T14:01:53.564Z,100905.69
2022-08-17T14:04:24.486Z,100907.91
2022-08-17T14:06:58.879Z,100896.69
2022-08-17T14:09:37.165Z,100901.94
2022-08-17T14:12:08.614Z,100909.16
2022-08-17T14:14:36.310Z,100902.53
2022-08-17T14:17:03.171Z,100877.84
2022-08-17T14:19:29.675Z,100893.22
2022-08-17T14:21:59.017Z,100904.25
2022-08-17T14:24:31.251Z,100892.66
2022-08-17T14:26:59.971Z,100915.03
2022-08-17T14:29:29.035Z,100902.06
2022-08-17T14:31:58.447Z,100904.63
2022-08-17T14:34:25.459Z,100907.69
2022-08-17T14:36:52.326Z,100904.66
2022-08-17T14:39:19.448Z,100888.97
2022-08-17T14:41:46.329Z,100897.72
2022-08-17T14:44:13.221Z,100893.78
2022-08-17T14:46:41.213Z,100899.84
2022-08-17T14:49:10.767Z,100883.81
2022-08-17T14:51:43.869Z,100900.88
2022-08-17T14:54:28.755Z,100895.88
2022-08-17T14:57:11.523Z,100884.84
2022-08-17T14:59:45.172Z,100893.06
2022-08-17T15:02:12.964Z,100889.47
2022-08-17T15:04:44.892Z,100886.41
2022-08-17T15:07:11.894Z,100878.13
2022-08-17T15:09:39.049Z,100872.59
2022-08-17T15:12:06.671Z,100878.69
2022-08-17T15:14:34.304Z,100872.66
2022-08-17T15:17:02.082Z,100877.66
2022-08-17T15:19:28.540Z,100876.53
2022-08-17T15:21:54.998Z,100869.34
2022-08-17T15:24:21.422Z,100850.84
2022-08-17T15:26:47.967Z,100853.88
2022-08-17T15:29:14.627Z,100848.34
2022-08-17T15:31:41.136Z,100854.06
2022-08-17T15:34:08.128Z,100859.59
2022-08-17T15:36:35.823Z,100852.13
2022-08-17T15:39:03.116Z,100859.28
2022-08-17T15:41:29.874Z,100852.63
2022-08-17T15:43:56.439Z,100854.44
2022-08-17T15:46:25.607Z,100855.44
2022-08-17T15:48:56.552Z,100856.72
2022-08-17T15:51:32.018Z,100849.97
2022-08-17T15:54:18.767Z,100844.47
2022-08-17T15:56:49.210Z,100822.19
2022-08-17T15:59:15.747Z,100838.72
2022-08-17T16:03:01.359Z,100836.31
2022-08-17T16:04:30.811Z,100837.25
2022-08-17T16:06:58.685Z,100830.19
2022-08-17T16:09:25.096Z,100838.59
2022-08-17T16:11:52.170Z,100831.06
2022-08-17T16:14:22.328Z,100831.97
2022-08-17T16:16:49.633Z,100829.00
2022-08-17T16:19:16.210Z,100832.16
2022-08-17T16:21:43.349Z,100823.75
2022-08-17T16:24:13.344Z,100832.09
2022-08-17T16:26:40.435Z,100822.81
2022-08-17T16:29:07.768Z,100803.59
2022-08-17T16:31:36.072Z,100809.72
2022-08-17T16:34:17.176Z,100823.25
2022-08-17T16:36:51.836Z,100815.00
2022-08-17T16:39:22.538Z,100789.69
2022-08-17T16:41:50.234Z,100793.00
2022-08-17T16:44:19.834Z,100815.06
2022-08-17T16:46:46.892Z,100811.13
2022-08-17T16:49:35.574Z,100802.38
2022-08-17T16:52:03.118Z,100807.94
2022-08-17T16:54:29.570Z,100798.91
2022-08-17T16:56:56.006Z,100797.25
2022-08-17T16:59:38.744Z,100796.19
2022-08-17T17:02:12.546Z,100794.78
2022-08-17T17:04:47.988Z,100797.00
2022-08-17T17:07:34.133Z,100806.91
2022-08-17T17:10:14.683Z,100807.47
2022-08-17T17:13:03.267Z,100810.78
2022-08-17T17:15:46.146Z,100809.41
2022-08-17T17:18:15.325Z,100808.28
2022-08-17T17:20:58.227Z,100808.31
2022-08-17T17:23:37.112Z,100801.13
2022-08-17T17:26:14.041Z,100807.75
2022-08-17T17:28:46.315Z,100802.25
2022-08-17T17:31:18.053Z,100808.03
2022-08-17T17:33:52.515Z,100807.22
2022-08-17T17:36:41.884Z,100818.22
2022-08-17T17:39:43.900Z,100812.72
2022-08-17T17:42:14.476Z,100819.28
2022-08-17T17:45:12.410Z,100819.53
2022-08-17T17:47:38.911Z,100828.59
2022-08-17T17:50:07.205Z,100834.84
2022-08-17T17:52:36.526Z,100823.22
2022-08-17T17:55:30.902Z,100834.50
2022-08-17T17:58:20.700Z,100833.03
2022-08-17T18:01:05.199Z,100821.69
2022-08-17T18:03:52.966Z,100824.31
2022-08-17T18:06:58.047Z,100811.63
2022-08-17T18:09:39.491Z,100798.88
2022-08-17T18:12:15.928Z,100797.69
2022-08-17T18:14:58.278Z,100785.47
2022-08-17T18:17:24.737Z,100794.16
2022-08-17T18:19:55.281Z,100806.22
2022-08-17T18:22:23.545Z,100807.44
2022-08-17T18:24:55.841Z,100821.41
2022-08-17T18:27:34.597Z,100841.38
2022-08-17T18:30:12.473Z,100872.44
2022-08-17T18:32:43.693Z,100943.19
2022-08-17T18:35:10.207Z,100952.72
2022-08-17T18:37:51.797Z,100956.38
2022-08-17T18:40:19.455Z,100959.50
2022-08-17T18:42:54.871Z,100965.00
2022-08-17T18:45:35.896Z,100986.19
2022-08-17T18:48:02.924Z,100986.34
2022-08-17T18:50:42.171Z,100964.19
2022-08-17T18:53:34.178Z,100997.75
2022-08-17T18:56:33.374Z,101011.97
2022-08-17T18:59:05.588Z,101007.91
2022-08-17T19:01:59.985Z,101015.91
2022-08-17T19:04:33.360Z,101000.63
2022-08-17T19:07:26.249Z,100990.03
2022-08-17T19:09:58.246Z,100968.03
2022-08-17T19:12:27.131Z,100949.59
2022-08-17T19:14:56.863Z,100932.63
2022-08-17T19:17:51.153Z,100926.63
2022-08-17T19:20:22.621Z,100917.97
2022-08-17T19:23:10.801Z,100907.13
2022-08-17T19:25:44.383Z,100890.25
2022-08-17T19:28:22.254Z,100886.94
2022-08-17T19:30:55.268Z,100884.03
2022-08-17T19:33:22.134Z,100885.31
2022-08-17T19:36:15.851Z,100884.25
2022-08-17T19:38:53.004Z,100893.06
2022-08-17T19:41:28.329Z,100903.31
2022-08-17T19:44:32.148Z,100894.94
2022-08-17T19:47:07.642Z,100888.31
2022-08-17T19:50:10.639Z,100873.28
2022-08-17T19:52:58.214Z,100891.66
2022-08-17T19:55:38.771Z,100885.63
2022-08-17T19:58:18.347Z,100871.41
2022-08-17T20:00:51.255Z,100870.56
2022-08-17T20:03:24.765Z,100864.97
2022-08-17T20:06:12.560Z,100860.78
2022-08-17T20:08:53.881Z,100864.50
2022-08-17T20:11:27.867Z,100869.09
2022-08-17T20:14:07.670Z,100870.16
2022-08-17T20:16:34.242Z,100872.88
2022-08-17T20:19:06.482Z,100867.44
2022-08-17T20:21:59.542Z,100868.91
2022-08-17T20:24:39.077Z,100846.81
2022-08-17T20:27:18.310Z,100856.63
2022-08-17T20:30:09.292Z,100866.19
2022-08-17T20:32:53.362Z,100857.03
2022-08-17T20:35:25.357Z,100868.50
2022-08-17T20:37:56.437Z,100866.84
2022-08-17T20:40:29.874Z,100858.91
2022-08-17T20:42:57.157Z,100866.25
2022-08-17T20:45:24.367Z,100868.13
2022-08-17T20:48:22.127Z,100870.00
2022-08-17T20:50:48.155Z,100864.16
2022-08-17T20:53:57.675Z,100854.16
2022-08-17T20:56:43.013Z,100859.75
2022-08-17T20:59:25.767Z,100868.56
2022-08-17T21:02:17.478Z,100870.66
2022-08-17T21:04:51.256Z,100872.13
2022-08-17T21:07:41.043Z,100874.00
2022-08-17T21:10:25.567Z,100884.06
2022-08-17T21:13:13.303Z,100894.09
2022-08-17T21:15:56.087Z,100896.66
2022-08-17T21:18:38.788Z,100900.41
2022-08-17T21:21:25.894Z,100909.00
2022-08-17T21:24:05.489Z,100904.41
2022-08-17T21:26:38.960Z,100905.47
2022-08-17T21:29:32.315Z,100888.78
2022-08-17T21:32:03.374Z,100885.00
2022-08-17T21:34:35.965Z,100886.06
2022-08-17T21:37:22.009Z,100882.06
2022-08-17T21:39:55.161Z,100883.56
2022-08-17T21:42:32.442Z,100896.50
2022-08-17T21:45:18.060Z,100887.53
2022-08-17T21:47:49.918Z,100894.44
2022-08-17T21:50:22.899Z,100892.97
2022-08-17T21:52:53.941Z,100890.91
2022-08-17T21:55:28.660Z,100883.78
2022-08-17T21:58:13.552Z,100879.41
2022-08-17T22:00:44.182Z,100887.16
2022-08-17T22:03:24.267Z,100882.75
2022-08-17T22:05:51.253Z,100888.19
2022-08-17T22:08:20.962Z,100848.59
2022-08-17T22:10:50.693Z,100895.09
2022-08-17T22:13:17.691Z,100885.06
2022-08-17T22:16:28.000Z,100889.22
2022-08-17T22:18:58.488Z,100876.13
2022-08-17T22:21:26.350Z,100857.38
2022-08-17T22:24:18.066Z,100882.56
2022-08-17T22:27:00.041Z,100887.16
2022-08-17T22:29:57.019Z,100881.50
2022-08-17T22:32:31.509Z,100880.50
2022-08-17T22:35:32.656Z,100875.69
2022-08-17T22:38:20.719Z,100871.53
2022-08-17T22:40:57.466Z,100861.09
2022-08-17T22:43:28.399Z,100856.94
2022-08-17T22:45:58.982Z,100860.09
2022-08-17T22:48:28.063Z,100827.34
2022-08-17T22:51:12.325Z,100839.88
2022-08-17T22:54:06.215Z,100866.81
2022-08-17T22:56:51.558Z,100863.47
2022-08-17T22:59:49.426Z,100869.09
2022-08-17T23:02:19.473Z,100865.38
2022-08-17T23:04:51.308Z,100874.16
2022-08-17T23:07:18.984Z,100880.19
2022-08-17T23:09:45.822Z,100867.66
2022-08-17T23:12:16.537Z,100877.88
2022-08-17T23:14:45.636Z,100876.22
2022-08-17T23:17:16.308Z,100883.50
2022-08-17T23:19:43.114Z,100878.72
2022-08-17T23:22:10.600Z,100877.66
2022-08-17T23:24:45.974Z,100866.41
2022-08-17T23:27:12.774Z,100877.69
2022-08-17T23:29:41.993Z,100873.69
2022-08-17T23:32:14.581Z,100888.50
2022-08-17T23:34:43.761Z,100876.59
2022-08-17T23:37:12.043Z,100881.19
2022-08-17T23:39:39.683Z,100887.88
2022-08-17T23:42:14.980Z,100877.66
2022-08-17T23:44:43.665Z,100855.91
2022-08-17T23:47:11.131Z,100883.44
2022-08-17T23:49:38.663Z,100887.00
2022-08-17T23:52:07.846Z,100879.09
2022-08-17T23:54:41.413Z,100892.41
2022-08-17T23:57:09.153Z,100881.56
2022-08-17T23:59:37.185Z,100876.75
